Time;durP1;ratioP1;P1;durP2;ratioP2;P2;SDS_P1;SDS_P2;PMS_P1;PMS_P2;Temp;Humidity;BMP_temperature;BMP_pressure;BME280_temperature;BME280_humidity;BME280_pressure;Samples;Min_cycle;Max_cycle;Signal;HPM_P1;HPM_P2
2023/04/16 00:00:08;;;;;;;25.90;17.70;;;;;;;11.07;75.10;100574.44;5032514;28;20052;-59
2023/04/16 00:02:36;;;;;;;25.92;19.08;;;;;;;11.10;74.75;100580.19;5032681;28;20483;-59
2023/04/16 00:05:07;;;;;;;24.10;16.73;;;;;;;11.10;74.96;100585.78;5044193;28;20052;-58
2023/04/16 00:07:34;;;;;;;23.60;17.40;;;;;;;11.11;75.10;100584.66;5052871;28;20060;-59
2023/04/16 00:10:02;;;;;;;23.95;16.08;;;;;;;11.16;74.79;100583.69;5041224;28;20115;-58
2023/04/16 00:12:29;;;;;;;24.20;17.25;;;;;;;11.10;74.60;100582.97;5035632;28;20398;-59
2023/04/16 00:14:57;;;;;;;23.45;15.68;;;;;;;10.99;74.67;100576.00;5041554;28;20056;-59
2023/04/16 00:17:26;;;;;;;25.35;16.17;;;;;;;10.96;75.25;100588.63;5032045;28;20049;-59
2023/04/16 00:19:55;;;;;;;25.48;18.30;;;;;;;10.95;74.78;100583.34;5035741;28;20065;-59
2023/04/16 00:22:22;;;;;;;25.55;18.17;;;;;;;10.86;75.32;100583.28;5039714;28;20402;-58
2023/04/16 00:24:51;;;;;;;23.20;16.95;;;;;;;10.94;75.20;100585.31;5039292;28;20061;-59
2023/04/16 00:27:19;;;;;;;25.88;18.08;;;;;;;10.95;74.91;100584.16;5035181;28;20049;-59
2023/04/16 00:29:46;;;;;;;26.05;19.10;;;;;;;10.97;75.40;100589.44;5040831;28;20479;-59
2023/04/16 00:32:14;;;;;;;25.25;18.20;;;;;;;11.00;74.99;100587.97;5035059;28;20053;-59
2023/04/16 00:34:41;;;;;;;26.50;17.02;;;;;;;11.00;75.06;100585.19;5042739;28;20493;-58
2023/04/16 00:37:10;;;;;;;23.55;16.98;;;;;;;11.00;75.41;100594.38;5035470;28;20063;-59
2023/04/16 00:39:37;;;;;;;26.70;17.48;;;;;;;11.00;74.93;100597.16;5035988;28;20041;-59
2023/04/16 00:42:05;;;;;;;24.00;16.25;;;;;;;11.03;74.55;100592.94;5041479;28;20058;-58
2023/04/16 00:44:34;;;;;;;24.55;16.88;;;;;;;11.03;75.37;100590.97;5034740;28;20045;-58
2023/04/16 00:47:02;;;;;;;22.15;16.25;;;;;;;11.01;74.87;100601.59;5040142;28;20060;-59
2023/04/16 00:49:30;;;;;;;26.88;15.82;;;;;;;11.07;75.02;100603.13;5044101;28;20057;-59
2023/04/16 00:51:58;;;;;;;24.75;16.48;;;;;;;11.09;74.54;100597.25;5038271;28;20056;-59
2023/04/16 00:54:26;;;;;;;26.55;17.20;;;;;;;11.10;74.70;100596.09;5035400;28;20068;-59
2023/04/16 00:56:54;;;;;;;22.67;15.95;;;;;;;11.09;74.22;100602.84;5037306;28;20061;-59
2023/04/16 00:59:22;;;;;;;21.20;15.77;;;;;;;11.09;74.44;100597.25;5034072;28;20044;-58
2023/04/16 01:01:49;;;;;;;21.45;14.48;;;;;;;11.11;74.86;100606.94;5040243;28;20042;-59
2023/04/16 01:04:17;;;;;;;26.15;15.90;;;;;;;11.13;74.76;100599.09;5034745;28;20406;-58
2023/04/16 01:06:44;;;;;;;22.98;15.40;;;;;;;11.15;74.77;100604.38;5039611;28;20049;-59
2023/04/16 01:09:12;;;;;;;19.73;14.98;;;;;;;11.18;74.64;100600.94;5037010;28;20049;-59
2023/04/16 01:11:40;;;;;;;21.85;15.52;;;;;;;11.13;74.61;100599.09;5039970;28;20509;-59
2023/04/16 01:14:08;;;;;;;28.40;18.20;;;;;;;11.07;74.49;100608.72;5038160;28;20493;-59
2023/04/16 01:16:35;;;;;;;19.27;15.48;;;;;;;11.09;74.29;100602.84;5039028;28;21024;-59
2023/04/16 01:19:03;;;;;;;21.42;15.98;;;;;;;11.15;74.40;100607.16;5045508;28;20053;-59
2023/04/16 01:21:32;;;;;;;23.35;16.77;;;;;;;11.12;74.25;100616.13;5048576;28;20076;-59
2023/04/16 01:24:03;;;;;;;28.48;18.13;;;;;;;11.12;74.54;100618.91;5037831;28;20054;-58
2023/04/16 01:26:30;;;;;;;23.05;16.65;;;;;;;11.16;74.22;100609.59;5040422;28;20053;-59
2023/04/16 01:29:00;;;;;;;20.80;15.82;;;;;;;11.17;74.33;100616.00;5034561;28;20053;-59
2023/04/16 01:31:27;;;;;;;22.65;17.00;;;;;;;11.20;74.03;100603.41;5041946;28;20065;-58
2023/04/16 01:33:55;;;;;;;21.75;16.05;;;;;;;11.20;74.21;100611.78;5038456;28;20053;-59
2023/04/16 01:36:25;;;;;;;19.33;14.95;;;;;;;11.21;73.98;100611.44;5036272;28;20057;-58
2023/04/16 01:38:54;;;;;;;22.35;16.63;;;;;;;11.18;73.57;100607.31;5035612;28;20098;-57
2023/04/16 01:41:22;;;;;;;25.38;17.02;;;;;;;11.20;73.95;100609.00;5043257;28;20682;-57
2023/04/16 01:43:49;;;;;;;23.85;17.63;;;;;;;11.12;73.83;100613.34;5035197;28;20049;-58
2023/04/16 01:46:20;;;;;;;24.30;17.20;;;;;;;11.12;73.72;100602.19;5050204;28;20072;-57
2023/04/16 01:48:48;;;;;;;20.77;15.20;;;;;;;11.12;73.93;100610.56;5052189;28;20052;-57
2023/04/16 01:51:18;;;;;;;22.40;17.02;;;;;;;11.14;73.70;100617.47;5049094;28;20144;-57
2023/04/16 01:53:49;;;;;;;22.35;15.57;;;;;;;11.17;73.88;100613.22;5045695;28;20054;-57
2023/04/16 01:56:18;;;;;;;28.70;17.88;;;;;;;11.17;74.02;100616.00;5042131;28;20498;-58
2023/04/16 01:58:46;;;;;;;19.60;14.63;;;;;;;11.12;73.79;100616.13;5052614;28;20049;-58
2023/04/16 02:01:16;;;;;;;22.60;16.95;;;;;;;11.17;74.32;100618.78;5050004;28;20056;-57
2023/04/16 02:03:46;;;;;;;22.25;16.35;;;;;;;11.15;74.18;100623.88;5041079;28;20046;-58
2023/04/16 02:06:15;;;;;;;22.45;16.23;;;;;;;11.07;74.03;100622.66;5036616;28;20057;-57
2023/04/16 02:08:42;;;;;;;26.02;16.73;;;;;;;11.13;74.30;100615.00;5041787;28;20049;-58
2023/04/16 02:11:10;;;;;;;22.92;14.65;;;;;;;11.05;74.33;100616.56;5040918;28;20057;-58
2023/04/16 02:13:39;;;;;;;22.33;15.48;;;;;;;11.10;74.32;100615.63;5041402;28;20053;-58
2023/04/16 02:16:07;;;;;;;19.95;15.05;;;;;;;11.11;74.25;100617.28;5045811;28;20060;-58
2023/04/16 02:18:35;;;;;;;27.33;17.27;;;;;;;11.08;74.19;100615.94;5044106;28;20053;-58
2023/04/16 02:21:02;;;;;;;20.25;14.80;;;;;;;11.10;74.34;100619.22;5036558;28;20502;-58
2023/04/16 02:23:30;;;;;;;21.52;14.25;;;;;;;11.03;74.50;100621.63;5041478;28;20063;-58
2023/04/16 02:25:57;;;;;;;17.45;13.95;;;;;;;11.08;74.87;100631.84;5035809;28;20459;-58
2023/04/16 02:28:25;;;;;;;18.95;13.77;;;;;;;11.05;74.74;100618.53;5047354;28;20049;-58
2023/04/16 02:30:53;;;;;;;20.08;14.65;;;;;;;11.06;74.72;100622.97;5040171;28;20056;-58
2023/04/16 02:33:24;;;;;;;20.35;14.60;;;;;;;11.08;75.15;100620.69;5034186;28;20056;-58
2023/04/16 02:35:52;;;;;;;19.70;14.05;;;;;;;11.10;74.66;100621.19;5046671;28;20049;-62
2023/04/16 02:38:19;;;;;;;26.98;16.10;;;;;;;11.02;75.27;100619.97;5042342;28;20057;-62
2023/04/16 02:40:47;;;;;;;23.85;15.80;;;;;;;11.01;75.03;100617.53;5032756;28;20504;-62
2023/04/16 02:43:16;;;;;;;22.83;15.57;;;;;;;11.06;75.26;100615.41;5033727;28;20057;-63
2023/04/16 02:45:44;;;;;;;24.65;17.90;;;;;;;11.01;74.75;100623.09;5047517;28;20050;-62
2023/04/16 02:48:15;;;;;;;27.80;19.02;;;;;;;11.06;74.96;100621.00;5040095;28;20054;-63
2023/04/16 02:50:42;;;;;;;24.25;18.40;;;;;;;11.07;74.90;100622.66;5037147;28;20075;-62
2023/04/16 02:53:13;;;;;;;28.13;18.52;;;;;;;11.04;75.06;100622.44;5035148;28;20053;-62
2023/04/16 02:55:40;;;;;;;27.08;19.95;;;;;;;11.02;74.90;100621.94;5031864;28;20052;-62
2023/04/16 02:58:15;;;;;;;29.60;20.92;;;;;;;10.97;74.71;100620.91;5038219;28;20063;-62
2023/04/16 03:00:43;;;;;;;29.70;22.23;;;;;;;10.96;74.96;100624.84;5032432;28;20053;-63
2023/04/16 03:03:11;;;;;;;33.13;23.58;;;;;;;10.93;75.28;100628.25;5033458;28;20049;-63
2023/04/16 03:05:41;;;;;;;35.53;23.95;;;;;;;10.93;75.02;100622.69;5038211;28;20478;-63
2023/04/16 03:08:08;;;;;;;35.70;23.92;;;;;;;10.97;75.52;100620.91;5040852;28;20049;-62
2023/04/16 03:10:36;;;;;;;37.08;26.40;;;;;;;10.94;75.48;100621.56;5040042;28;20467;-63
2023/04/16 03:13:04;;;;;;;31.52;24.85;;;;;;;10.95;75.49;100625.16;5032812;28;20447;-62
2023/04/16 03:15:31;;;;;;;36.97;27.15;;;;;;;11.02;75.29;100624.72;5040493;28;20045;-63
2023/04/16 03:17:59;;;;;;;38.08;25.98;;;;;;;11.05;75.44;100624.94;5047872;28;20049;-63
2023/04/16 03:20:28;;;;;;;36.85;26.90;;;;;;;11.09;74.55;100625.13;5039209;28;20425;-63
2023/04/16 03:22:56;;;;;;;37.00;26.70;;;;;;;11.11;75.22;100620.06;5035087;28;20058;-63
2023/04/16 03:25:23;;;;;;;35.08;26.13;;;;;;;11.10;75.07;100619.22;5032604;28;20049;-63
2023/04/16 03:27:50;;;;;;;42.42;29.42;;;;;;;11.12;74.68;100618.91;5047052;28;20049;-63
2023/04/16 03:30:18;;;;;;;40.03;28.55;;;;;;;11.17;74.31;100628.00;5051290;28;20063;-63
2023/04/16 03:32:45;;;;;;;35.65;26.27;;;;;;;11.16;74.62;100625.50;5037730;28;20046;-63
2023/04/16 03:35:12;;;;;;;40.85;27.95;;;;;;;11.14;74.34;100619.44;5039609;28;20049;-63
2023/04/16 03:37:41;;;;;;;35.60;26.20;;;;;;;11.14;74.55;100625.81;5045462;28;20056;-63
2023/04/16 03:40:09;;;;;;;38.17;27.88;;;;;;;11.13;74.50;100634.53;5040169;28;20049;-63
2023/04/16 03:42:36;;;;;;;37.78;28.67;;;;;;;11.14;74.37;100638.94;5037964;28;20072;-63
2023/04/16 03:45:04;;;;;;;38.42;29.42;;;;;;;11.15;74.34;100637.81;5040255;28;20044;-63
2023/04/16 03:47:31;;;;;;;40.20;29.38;;;;;;;11.16;74.21;100639.44;5036827;28;20049;-63
2023/04/16 03:49:58;;;;;;;41.75;30.15;;;;;;;11.19;74.19;100644.38;5037124;28;20049;-63
2023/04/16 03:52:29;;;;;;;39.58;29.33;;;;;;;11.21;74.09;100639.31;5045758;28;20049;-62
2023/04/16 03:54:58;;;;;;;37.63;29.52;;;;;;;11.20;74.13;100640.47;5045476;28;20414;-63
2023/04/16 03:57:25;;;;;;;40.45;28.77;;;;;;;11.18;74.12;100638.00;5032702;28;20072;-63
2023/04/16 03:59:52;;;;;;;39.08;27.95;;;;;;;11.22;73.94;100645.75;5030721;28;20428;-63
2023/04/16 04:02:20;;;;;;;40.17;28.35;;;;;;;11.20;73.44;100645.22;5031417;28;20049;-62
2023/04/16 04:04:50;;;;;;;31.52;25.15;;;;;;;11.20;73.97;100637.69;5033835;28;20053;-62
2023/04/16 04:07:17;;;;;;;32.78;26.38;;;;;;;11.24;73.97;100640.69;5035254;28;20057;-62
2023/04/16 04:09:44;;;;;;;34.22;26.13;;;;;;;11.31;73.63;100641.06;5034485;28;20060;-62
2023/04/16 04:12:13;;;;;;;36.17;26.70;;;;;;;11.27;73.70;100638.06;5032033;28;20053;-62
2023/04/16 04:14:43;;;;;;;34.30;25.92;;;;;;;11.25;73.83;100645.91;5031239;28;20409;-62
2023/04/16 04:17:10;;;;;;;34.97;26.25;;;;;;;11.34;73.57;100640.44;5031979;28;20049;-62
2023/04/16 04:19:38;;;;;;;36.03;27.25;;;;;;;11.33;73.53;100645.16;5033371;28;20057;-62
2023/04/16 04:22:05;;;;;;;30.67;23.52;;;;;;;11.37;73.33;100648.97;5051359;28;20049;-63
2023/04/16 04:24:32;;;;;;;34.90;26.10;;;;;;;11.40;73.43;100644.72;5040227;28;20056;-62
2023/04/16 04:27:00;;;;;;;35.63;27.23;;;;;;;11.42;73.18;100645.25;5035990;28;20470;-62
2023/04/16 04:29:29;;;;;;;37.33;25.98;;;;;;;11.42;73.29;100655.56;5038185;28;20052;-62
2023/04/16 04:31:57;;;;;;;29.15;23.20;;;;;;;11.39;73.36;100654.25;5031132;28;20057;-62
2023/04/16 04:34:25;;;;;;;35.35;25.10;;;;;;;11.43;73.41;100652.47;5031745;28;20084;-63
2023/04/16 04:36:52;;;;;;;34.70;25.23;;;;;;;11.44;73.23;100661.66;5043636;28;20513;-62
2023/04/16 04:39:23;;;;;;;35.95;26.35;;;;;;;11.41;73.29;100665.91;5044566;28;20054;-62
2023/04/16 04:41:54;;;;;;;31.80;24.42;;;;;;;11.44;73.32;100664.44;5032300;28;20045;-62
2023/04/16 04:44:21;;;;;;;33.42;23.80;;;;;;;11.45;73.24;100668.91;5046688;28;20056;-62
2023/04/16 04:46:50;;;;;;;35.80;24.85;;;;;;;11.49;73.03;100673.53;5049954;28;20072;-62
2023/04/16 04:49:17;;;;;;;41.05;27.15;;;;;;;11.45;73.21;100664.16;5042436;28;20049;-62
2023/04/16 04:51:44;;;;;;;42.00;30.25;;;;;;;11.47;73.06;100670.22;5037080;28;20045;-62
2023/04/16 04:54:14;;;;;;;36.75;27.05;;;;;;;11.48;73.21;100665.47;5050456;28;20072;-63
2023/04/16 04:56:44;;;;;;;38.22;26.20;;;;;;;11.47;73.30;100675.00;5042375;28;20076;-62
2023/04/16 04:59:11;;;;;;;44.40;28.48;;;;;;;11.44;73.38;100673.63;5049750;28;20076;-62
2023/04/16 05:01:39;;;;;;;34.95;24.80;;;;;;;11.43;73.33;100669.22;5040865;28;20045;-61
2023/04/16 05:04:08;;;;;;;45.42;29.13;;;;;;;11.40;73.23;100671.81;5037125;28;20062;-62
2023/04/16 05:06:35;;;;;;;47.50;28.90;;;;;;;11.37;72.83;100682.44;5048049;28;20413;-61
2023/04/16 05:09:02;;;;;;;42.33;29.95;;;;;;;11.43;73.03;100679.56;5048542;28;20049;-63
2023/04/16 05:11:30;;;;;;;46.83;30.23;;;;;;;11.40;72.98;100677.38;5042160;28;20045;-62
2023/04/16 05:13:57;;;;;;;41.28;28.98;;;;;;;11.44;72.95;100682.00;5050636;28;20060;-62
2023/04/16 05:16:24;;;;;;;37.13;27.90;;;;;;;11.39;72.86;100690.50;5050418;28;20045;-62
2023/04/16 05:18:51;;;;;;;39.97;27.83;;;;;;;11.30;73.14;100687.66;5040624;28;20053;-62
2023/04/16 05:21:20;;;;;;;42.38;28.08;;;;;;;11.32;73.37;100690.94;5043960;28;20533;-62
2023/04/16 05:23:47;;;;;;;35.58;27.63;;;;;;;11.40;73.17;100689.34;5054676;28;20053;-62
2023/04/16 05:26:15;;;;;;;36.53;26.90;;;;;;;11.40;73.45;100692.16;5055162;28;20410;-62
2023/04/16 05:28:42;;;;;;;37.80;26.58;;;;;;;11.41;72.88;100698.56;5055199;28;20076;-62
2023/04/16 05:31:09;;;;;;;36.13;25.25;;;;;;;11.40;72.96;100696.91;5055073;28;20052;-63
2023/04/16 05:33:36;;;;;;;35.78;25.15;;;;;;;11.45;72.68;100692.03;5055193;28;20056;-62
2023/04/16 05:36:04;;;;;;;36.13;25.48;;;;;;;11.40;72.51;100702.47;5050510;28;20422;-62
2023/04/16 05:38:32;;;;;;;36.50;25.98;;;;;;;11.37;72.67;100704.75;5055221;28;20056;-62
2023/04/16 05:41:00;;;;;;;37.80;26.35;;;;;;;11.41;72.73;100701.34;5054159;28;20049;-62
2023/04/16 05:43:27;;;;;;;34.35;24.40;;;;;;;11.43;72.61;100704.66;5043495;28;20418;-62
2023/04/16 05:45:54;;;;;;;35.17;24.48;;;;;;;11.45;72.49;100716.31;5035497;28;20061;-61
2023/04/16 05:48:21;;;;;;;36.75;24.92;;;;;;;11.45;72.53;100716.31;5042722;28;20446;-61
2023/04/16 05:50:49;;;;;;;32.95;23.73;;;;;;;11.39;72.51;100712.81;5041382;28;20052;-62
2023/04/16 05:53:18;;;;;;;36.78;26.40;;;;;;;11.40;72.65;100722.00;5044252;28;20049;-61
2023/04/16 05:55:46;;;;;;;35.50;25.33;;;;;;;11.45;72.32;100721.91;5034240;28;20485;-63
2023/04/16 05:58:14;;;;;;;37.92;24.90;;;;;;;11.45;72.44;100722.72;5041344;28;20417;-62
2023/04/16 06:00:41;;;;;;;33.88;24.13;;;;;;;11.50;72.34;100732.94;5049394;28;20056;-62
2023/04/16 06:03:08;;;;;;;33.80;24.55;;;;;;;11.47;72.37;100730.78;5054298;28;20393;-62
2023/04/16 06:05:35;;;;;;;38.45;25.65;;;;;;;11.44;72.42;100732.22;5049439;28;20510;-62
2023/04/16 06:08:03;;;;;;;36.50;24.27;;;;;;;11.50;72.16;100733.75;5053660;28;20152;-62
2023/04/16 06:10:30;;;;;;;35.28;24.30;;;;;;;11.53;72.37;100735.09;5053630;28;20060;-62
2023/04/16 06:12:59;;;;;;;33.85;23.50;;;;;;;11.54;72.49;100740.34;5054438;28;20052;-62
2023/04/16 06:15:26;;;;;;;35.80;23.75;;;;;;;11.55;71.79;100738.41;5053284;28;20059;-62
2023/04/16 06:17:55;;;;;;;39.40;26.17;;;;;;;11.59;72.10;100739.44;5051768;28;20052;-62
2023/04/16 06:20:22;;;;;;;32.97;25.75;;;;;;;11.60;72.05;100735.50;5045076;28;20059;-62
2023/04/16 06:22:50;;;;;;;32.70;23.52;;;;;;;11.65;71.73;100738.16;5042683;28;20450;-62
2023/04/16 06:25:17;;;;;;;33.83;24.50;;;;;;;11.68;71.50;100745.09;5045558;28;20062;-62
2023/04/16 06:27:44;;;;;;;34.70;25.00;;;;;;;11.69;71.53;100749.50;5054358;28;20049;-62
2023/04/16 06:30:15;;;;;;;33.25;24.30;;;;;;;11.76;71.05;100750.72;5034712;28;20124;-62
2023/04/16 06:32:43;;;;;;;33.08;23.52;;;;;;;11.74;70.79;100747.44;5034458;28;20329;-62
2023/04/16 06:35:10;;;;;;;29.40;23.55;;;;;;;11.77;71.74;100751.56;5033832;28;20387;-61
2023/04/16 06:37:38;;;;;;;31.67;23.73;;;;;;;11.83;70.82;100758.66;5049386;28;20056;-62
2023/04/16 06:40:06;;;;;;;31.65;23.88;;;;;;;11.93;70.38;100750.06;5046863;28;20060;-62
2023/04/16 06:42:33;;;;;;;31.75;22.90;;;;;;;11.93;70.76;100749.25;5041446;28;20049;-62
2023/04/16 06:45:01;;;;;;;33.50;23.25;;;;;;;12.00;70.27;100755.22;5053358;28;20053;-62
2023/04/16 06:47:29;;;;;;;31.25;22.98;;;;;;;12.05;70.17;100754.25;5044006;28;20053;-62
2023/04/16 06:49:56;;;;;;;33.55;23.60;;;;;;;12.06;69.91;100762.31;5038267;28;20077;-62
2023/04/16 06:52:24;;;;;;;30.63;23.00;;;;;;;12.10;70.20;100763.34;5047784;28;20072;-62
2023/04/16 06:54:51;;;;;;;32.85;24.08;;;;;;;12.10;69.70;100759.72;5053550;28;20056;-62
2023/04/16 06:57:18;;;;;;;31.08;23.58;;;;;;;12.09;69.61;100772.03;5053513;28;20049;-62
2023/04/16 06:59:46;;;;;;;29.15;21.73;;;;;;;12.06;69.31;100776.28;5053529;28;20071;-62
2023/04/16 07:02:13;;;;;;;29.15;22.00;;;;;;;12.10;69.59;100776.47;5044219;28;20057;-62
2023/04/16 07:04:42;;;;;;;29.58;21.65;;;;;;;12.17;69.70;100772.06;5047365;28;20417;-62
2023/04/16 07:07:09;;;;;;;29.40;23.33;;;;;;;12.28;69.31;100766.25;5046133;28;20062;-62
2023/04/16 07:09:36;;;;;;;33.03;23.00;;;;;;;12.32;69.28;100776.44;5033328;28;20494;-62
2023/04/16 07:12:04;;;;;;;27.70;22.05;;;;;;;12.37;69.51;100776.34;5033444;28;20470;-62
2023/04/16 07:14:31;;;;;;;26.60;21.60;;;;;;;12.44;69.34;100775.06;5033357;28;20073;-62
2023/04/16 07:16:58;;;;;;;26.75;21.65;;;;;;;12.53;68.54;100779.53;5033601;28;20394;-62
2023/04/16 07:19:29;;;;;;;28.05;20.38;;;;;;;12.62;68.65;100776.81;5033070;28;20057;-62
2023/04/16 07:21:58;;;;;;;31.52;22.08;;;;;;;12.72;67.54;100781.28;5038429;28;20045;-62
2023/04/16 07:24:25;;;;;;;27.55;22.08;;;;;;;12.71;67.75;100785.22;5039211;28;20060;-61
2023/04/16 07:26:52;;;;;;;27.73;22.48;;;;;;;12.82;67.48;100774.59;5041708;28;20048;-62
2023/04/16 07:29:19;;;;;;;28.98;22.33;;;;;;;12.93;67.74;100771.16;5053000;28;20437;-62
2023/04/16 07:31:47;;;;;;;29.65;22.38;;;;;;;12.97;66.91;100772.16;5040404;28;20053;-62
2023/04/16 07:34:14;;;;;;;25.63;21.58;;;;;;;13.00;67.18;100773.53;5040436;28;20056;-62
2023/04/16 07:36:41;;;;;;;26.83;20.88;;;;;;;13.03;66.62;100772.84;5033946;28;20056;-61
2023/04/16 07:39:12;;;;;;;26.77;22.73;;;;;;;12.98;65.36;100790.63;5048864;28;20403;-62
2023/04/16 07:41:40;;;;;;;30.08;24.02;;;;;;;12.95;66.06;100791.25;5040732;28;20051;-61
2023/04/16 07:44:07;;;;;;;26.88;21.80;;;;;;;12.95;65.66;100796.84;5039162;28;20056;-62
2023/04/16 07:46:34;;;;;;;27.88;21.75;;;;;;;12.96;64.83;100795.69;5035256;28;20052;-62
2023/04/16 07:49:02;;;;;;;29.23;23.52;;;;;;;12.95;65.89;100794.03;5039994;28;20417;-62
2023/04/16 07:51:30;;;;;;;26.02;23.20;;;;;;;13.03;64.58;100798.03;5042548;28;20053;-62
2023/04/16 07:53:57;;;;;;;27.52;22.77;;;;;;;13.05;65.09;100803.31;5037190;28;20063;-62
2023/04/16 07:56:26;;;;;;;24.80;21.98;;;;;;;13.15;64.22;100792.66;5032778;28;20049;-61
2023/04/16 07:58:53;;;;;;;25.33;22.53;;;;;;;13.19;64.31;100792.84;5033484;28;20061;-61
2023/04/16 08:01:21;;;;;;;26.75;22.80;;;;;;;13.27;64.92;100796.78;5039595;28;20064;-61
2023/04/16 08:03:49;;;;;;;28.30;23.92;;;;;;;13.49;63.25;100798.69;5050176;28;20068;-62
2023/04/16 08:06:16;;;;;;;26.13;21.55;;;;;;;13.71;63.18;100798.56;5046269;28;20049;-61
2023/04/16 08:08:43;;;;;;;24.65;21.20;;;;;;;13.79;63.17;100797.72;5052448;28;20052;-62
2023/04/16 08:11:11;;;;;;;27.17;22.33;;;;;;;13.66;63.35;100798.72;5051399;28;20123;-62
2023/04/16 08:13:40;;;;;;;28.83;22.63;;;;;;;13.71;62.99;100812.56;5051380;28;20056;-62
2023/04/16 08:16:07;;;;;;;27.90;22.77;;;;;;;13.66;62.79;100804.31;5043152;28;20053;-61
2023/04/16 08:18:35;;;;;;;26.70;21.65;;;;;;;13.60;63.27;100809.22;5045297;28;20060;-61
2023/04/16 08:21:02;;;;;;;27.63;22.42;;;;;;;13.53;63.21;100819.28;5045257;28;20053;-57
2023/04/16 08:23:29;;;;;;;30.15;24.55;;;;;;;13.51;63.30;100816.81;5042194;28;20044;-57
2023/04/16 08:25:57;;;;;;;29.70;23.90;;;;;;;13.50;62.65;100822.72;5032028;28;20053;-57
2023/04/16 08:28:24;;;;;;;30.63;23.92;;;;;;;13.59;63.21;100826.38;5038613;28;20423;-57
2023/04/16 08:30:53;;;;;;;30.60;24.88;;;;;;;13.67;62.97;100824.72;5041264;28;20567;-59
2023/04/16 08:33:21;;;;;;;28.30;23.00;;;;;;;13.78;62.80;100829.69;5039761;28;20049;-58
2023/04/16 08:35:48;;;;;;;28.58;23.38;;;;;;;13.83;62.50;100836.28;5040674;28;20056;-57
2023/04/16 08:38:15;;;;;;;28.40;24.75;;;;;;;13.80;62.04;100837.78;5051685;28;20064;-57
2023/04/16 08:40:44;;;;;;;32.20;26.35;;;;;;;13.72;62.06;100835.78;5043470;28;20056;-57
2023/04/16 08:43:13;;;;;;;28.65;24.25;;;;;;;13.62;61.00;100838.88;5033087;28;20057;-58
2023/04/16 08:45:42;;;;;;;29.90;25.23;;;;;;;13.68;62.20;100843.19;5043717;28;20056;-58
2023/04/16 08:48:12;;;;;;;29.80;25.85;;;;;;;13.73;62.11;100843.88;5047919;28;20075;-58
2023/04/16 08:50:41;;;;;;;30.33;25.00;;;;;;;14.00;61.24;100848.31;5037364;28;20421;-58
2023/04/16 08:53:14;;;;;;;30.70;25.20;;;;;;;14.12;60.64;100849.66;5038940;28;20054;-57
2023/04/16 08:55:47;;;;;;;29.15;24.70;;;;;;;14.19;61.03;100853.63;5035189;28;20064;-58
2023/04/16 08:58:18;;;;;;;29.60;26.17;;;;;;;14.27;59.92;100853.94;5039835;28;20402;-57
2023/04/16 09:00:48;;;;;;;32.25;24.90;;;;;;;14.23;59.76;100856.56;5042687;28;20072;-57
2023/04/16 09:03:18;;;;;;;31.10;24.80;;;;;;;14.36;60.46;100851.94;5039806;28;20045;-57
2023/04/16 09:05:47;;;;;;;32.20;24.77;;;;;;;14.44;60.59;100859.53;5041391;28;20060;-58
2023/04/16 09:08:15;;;;;;;28.05;24.08;;;;;;;14.52;59.89;100858.69;5033278;28;20061;-58
2023/04/16 09:10:43;;;;;;;28.50;24.42;;;;;;;14.68;58.42;100866.59;5046603;28;20540;-58
2023/04/16 09:13:12;;;;;;;27.38;24.23;;;;;;;14.70;58.88;100862.34;5045386;28;20049;-57
2023/04/16 09:15:39;;;;;;;25.80;22.33;;;;;;;14.60;58.39;100860.69;5042286;28;20425;-57
2023/04/16 09:18:07;;;;;;;26.45;22.50;;;;;;;14.68;59.61;100866.59;5047212;28;20055;-59
2023/04/16 09:20:36;;;;;;;27.88;23.67;;;;;;;14.93;57.85;100862.09;5035520;28;20049;-57
2023/04/16 09:23:03;;;;;;;30.48;24.58;;;;;;;15.17;57.48;100870.78;5029863;28;20065;-58
2023/04/16 09:25:34;;;;;;;27.70;24.70;;;;;;;15.17;57.77;100867.97;5029034;28;20046;-58
2023/04/16 09:28:01;;;;;;;27.02;23.02;;;;;;;15.07;57.01;100873.13;5037329;28;20064;-58
2023/04/16 09:30:29;;;;;;;26.25;22.33;;;;;;;14.99;56.96;100884.03;5040707;28;20141;-58
2023/04/16 09:33:12;;;;;;;24.27;21.00;;;;;;;14.91;57.29;100879.28;5039149;28;20089;-57
2023/04/16 09:35:47;;;;;;;24.25;21.58;;;;;;;14.87;56.81;100881.09;5035055;28;20080;-58
2023/04/16 09:38:15;;;;;;;25.88;21.88;;;;;;;14.89;57.21;100880.75;5034910;28;20061;-58
2023/04/16 09:40:42;;;;;;;27.10;23.65;;;;;;;14.89;57.25;100890.00;5035484;28;20073;-58
2023/04/16 09:43:11;;;;;;;28.15;23.15;;;;;;;14.89;58.45;100887.22;5034570;28;20455;-58
2023/04/16 09:45:48;;;;;;;27.70;24.23;;;;;;;14.99;57.79;100895.28;5034797;28;20064;-58
2023/04/16 09:48:16;;;;;;;26.40;23.20;;;;;;;15.19;57.93;100892.88;5047438;28;20057;-58
2023/04/16 09:50:51;;;;;;;29.60;24.38;;;;;;;15.47;57.57;100889.63;5054450;28;20053;-58
2023/04/16 09:53:25;;;;;;;27.55;24.65;;;;;;;15.60;56.52;100891.38;5053165;28;20049;-58
2023/04/16 09:55:52;;;;;;;26.02;22.77;;;;;;;15.79;56.42;100889.00;5052700;28;20053;-58
2023/04/16 09:58:19;;;;;;;26.58;23.67;;;;;;;15.82;54.80;100888.31;5054856;28;20060;-58
2023/04/16 10:00:47;;;;;;;26.65;23.67;;;;;;;15.62;55.56;100895.50;5052562;28;20065;-58
2023/04/16 10:03:14;;;;;;;25.65;22.85;;;;;;;15.59;55.23;100898.16;5048485;28;20048;-58
2023/04/16 10:05:41;;;;;;;26.90;23.15;;;;;;;15.58;55.76;100900.16;5054613;28;20060;-57
2023/04/16 10:08:14;;;;;;;23.80;21.23;;;;;;;15.52;56.06;100906.31;5054601;28;20060;-58
2023/04/16 10:10:42;;;;;;;24.40;20.95;;;;;;;15.52;55.71;100911.94;5054119;28;20064;-58
2023/04/16 10:13:11;;;;;;;22.90;20.45;;;;;;;15.51;55.82;100910.25;5053532;28;20053;-58
2023/04/16 10:15:39;;;;;;;24.63;21.27;;;;;;;15.65;55.52;100905.25;5053102;28;20145;-58
2023/04/16 10:18:07;;;;;;;23.92;21.48;;;;;;;15.93;55.08;100913.22;5040038;28;20395;-58
2023/04/16 10:20:35;;;;;;;23.50;21.00;;;;;;;16.27;53.98;100911.31;5034224;28;20692;-59
2023/04/16 10:23:02;;;;;;;25.27;19.70;;;;;;;16.43;53.21;100909.53;5034234;28;20053;-58
2023/04/16 10:25:32;;;;;;;21.13;18.83;;;;;;;16.57;52.50;100907.28;5034527;28;20076;-58
2023/04/16 10:28:00;;;;;;;;;;;;;;;17.20;51.61;100907.16;5045157;28;20049;-58
2023/04/16 10:30:27;;;;;;;21.23;18.85;;;;;;;18.19;49.65;100904.38;5052952;28;19920;-59
2023/04/16 10:32:55;;;;;;;22.42;19.98;;;;;;;19.33;47.05;100897.50;5048157;28;20064;-58
2023/04/16 10:35:25;;;;;;;18.80;16.85;;;;;;;20.60;44.62;100894.44;5036347;28;20049;-58
2023/04/16 10:37:56;;;;;;;20.45;18.25;;;;;;;20.51;43.84;100900.31;5033344;28;20514;-58
2023/04/16 10:40:25;;;;;;;18.40;16.23;;;;;;;19.84;43.67;100904.09;5034888;28;20041;-58
2023/04/16 10:42:58;;;;;;;21.35;19.15;;;;;;;19.43;44.88;100900.63;5046084;28;20076;-58
2023/04/16 10:45:29;;;;;;;20.70;18.45;;;;;;;19.07;44.97;100898.88;5033069;28;20078;-57
2023/04/16 10:47:57;;;;;;;18.15;16.35;;;;;;;18.86;45.28;100897.09;5044044;28;20060;-57
2023/04/16 10:50:24;;;;;;;18.20;16.35;;;;;;;19.01;45.93;100886.19;5053280;28;20067;-57
2023/04/16 10:53:21;;;;;;;17.15;15.27;;;;;;;19.04;45.47;100891.09;5045411;28;20490;-57
2023/04/16 10:56:14;;;;;;;17.40;15.63;;;;;;;18.92;45.22;100888.34;5039149;28;20045;-57
2023/04/16 10:58:42;;;;;;;16.42;14.75;;;;;;;18.85;45.13;100894.63;5058050;28;20053;-58
2023/04/16 11:01:15;;;;;;;16.60;15.00;;;;;;;18.86;45.37;100897.09;5038659;28;20525;-57
2023/04/16 11:03:47;;;;;;;17.48;15.65;;;;;;;18.90;45.16;100900.03;5038289;28;20994;-57
2023/04/16 11:06:16;;;;;;;16.65;14.95;;;;;;;18.74;45.67;100897.13;5051074;28;20045;-57
2023/04/16 11:08:46;;;;;;;20.25;17.33;;;;;;;18.47;46.34;100895.94;5053657;28;20052;-57
2023/04/16 11:11:13;;;;;;;17.40;15.68;;;;;;;18.20;47.21;100895.53;5052796;28;20056;-57
2023/04/16 11:13:45;;;;;;;17.67;15.60;;;;;;;18.25;46.10;100888.84;5046737;28;20371;-58